sensor_id;sensor_type;location;lat;lon;timestamp;temperature;humidity
46416;DHT22;32620;51.704;7.822;2023-02-01T00:01:23;5.10;99.90
46416;DHT22;32620;51.704;7.822;2023-02-01T00:03:48;5.10;99.90
46416;DHT22;32620;51.704;7.822;2023-02-01T00:06:14;5.10;99.90
46416;DHT22;32620;51.704;7.822;2023-02-01T00:08:39;5.10;99.90
46416;DHT22;32620;51.704;7.822;2023-02-01T00:11:07;5.00;99.90
46416;DHT22;32620;51.704;7.822;2023-02-01T00:13:34;5.00;99.90
46416;DHT22;32620;51.704;7.822;2023-02-01T00:16:10;5.10;99.90
46416;DHT22;32620;51.704;7.822;2023-02-01T00:18:37;5.10;99.90
46416;DHT22;32620;51.704;7.822;2023-02-01T00:21:03;5.10;99.90
46416;DHT22;32620;51.704;7.822;2023-02-01T00:23:32;5.00;99.90
46416;DHT22;32620;51.704;7.822;2023-02-01T00:26:01;5.00;99.90
46416;DHT22;32620;51.704;7.822;2023-02-01T00:28:26;5.00;99.90
46416;DHT22;32620;51.704;7.822;2023-02-01T00:30:56;5.00;99.90
46416;DHT22;32620;51.704;7.822;2023-02-01T00:33:22;5.00;99.90
46416;DHT22;32620;51.704;7.822;2023-02-01T00:35:48;5.00;99.90
46416;DHT22;32620;51.704;7.822;2023-02-01T00:38:13;5.10;99.90
46416;DHT22;32620;51.704;7.822;2023-02-01T00:40:39;5.20;99.90
46416;DHT22;32620;51.704;7.822;2023-02-01T00:43:04;5.20;99.90
46416;DHT22;32620;51.704;7.822;2023-02-01T00:45:30;5.20;99.90
46416;DHT22;32620;51.704;7.822;2023-02-01T00:47:55;5.20;99.90
46416;DHT22;32620;51.704;7.822;2023-02-01T00:50:21;5.30;99.90
46416;DHT22;32620;51.704;7.822;2023-02-01T00:52:47;5.30;99.90
46416;DHT22;32620;51.704;7.822;2023-02-01T00:55:12;5.30;99.90
46416;DHT22;32620;51.704;7.822;2023-02-01T00:57:38;5.30;99.90
46416;DHT22;32620;51.704;7.822;2023-02-01T01:00:04;5.40;99.90
46416;DHT22;32620;51.704;7.822;2023-02-01T01:02:29;5.40;99.90
46416;DHT22;32620;51.704;7.822;2023-02-01T01:04:55;5.40;99.90
46416;DHT22;32620;51.704;7.822;2023-02-01T01:07:20;5.50;99.90
46416;DHT22;32620;51.704;7.822;2023-02-01T01:09:46;5.50;99.90
46416;DHT22;32620;51.704;7.822;2023-02-01T01:12:12;5.50;99.90
46416;DHT22;32620;51.704;7.822;2023-02-01T01:14:37;5.50;99.90
46416;DHT22;32620;51.704;7.822;2023-02-01T01:17:03;5.50;99.90
46416;DHT22;32620;51.704;7.822;2023-02-01T01:19:28;5.50;99.90
46416;DHT22;32620;51.704;7.822;2023-02-01T01:21:54;5.50;99.90
46416;DHT22;32620;51.704;7.822;2023-02-01T01:24:19;5.50;99.90
46416;DHT22;32620;51.704;7.822;2023-02-01T01:26:45;5.50;99.90
46416;DHT22;32620;51.704;7.822;2023-02-01T01:29:11;5.50;99.90
46416;DHT22;32620;51.704;7.822;2023-02-01T01:31:36;5.50;99.90
46416;DHT22;32620;51.704;7.822;2023-02-01T01:34:02;5.50;99.90
46416;DHT22;32620;51.704;7.822;2023-02-01T01:36:29;5.50;99.90
46416;DHT22;32620;51.704;7.822;2023-02-01T01:38:54;5.50;99.90
46416;DHT22;32620;51.704;7.822;2023-02-01T01:41:23;5.60;99.90
46416;DHT22;32620;51.704;7.822;2023-02-01T01:43:54;5.60;99.90
46416;DHT22;32620;51.704;7.822;2023-02-01T01:46:24;5.60;99.90
46416;DHT22;32620;51.704;7.822;2023-02-01T01:49:23;5.60;99.90
46416;DHT22;32620;51.704;7.822;2023-02-01T01:51:42;5.70;99.90
46416;DHT22;32620;51.704;7.822;2023-02-01T01:54:14;5.70;99.90
46416;DHT22;32620;51.704;7.822;2023-02-01T01:56:45;5.70;99.90
46416;DHT22;32620;51.704;7.822;2023-02-01T01:59:12;5.70;99.90
46416;DHT22;32620;51.704;7.822;2023-02-01T02:01:38;5.70;99.90
46416;DHT22;32620;51.704;7.822;2023-02-01T02:04:04;5.70;99.90
46416;DHT22;32620;51.704;7.822;2023-02-01T02:06:41;5.70;99.90
46416;DHT22;32620;51.704;7.822;2023-02-01T02:09:10;5.80;99.90
46416;DHT22;32620;51.704;7.822;2023-02-01T02:11:36;5.70;99.90
46416;DHT22;32620;51.704;7.822;2023-02-01T02:14:03;5.90;99.90
46416;DHT22;32620;51.704;7.822;2023-02-01T02:23:02;5.90;99.90
46416;DHT22;32620;51.704;7.822;2023-02-01T02:25:46;5.90;99.90
46416;DHT22;32620;51.704;7.822;2023-02-01T02:35:16;6.00;99.90
46416;DHT22;32620;51.704;7.822;2023-02-01T02:37:20;5.90;99.90
46416;DHT22;32620;51.704;7.822;2023-02-01T02:42:58;5.90;99.90
46416;DHT22;32620;51.704;7.822;2023-02-01T02:45:54;6.00;99.90
46416;DHT22;32620;51.704;7.822;2023-02-01T02:51:55;6.00;99.90
46416;DHT22;32620;51.704;7.822;2023-02-01T02:54:45;6.00;99.90
46416;DHT22;32620;51.704;7.822;2023-02-01T02:57:19;6.10;99.90
46416;DHT22;32620;51.704;7.822;2023-02-01T03:00:09;6.00;99.90
46416;DHT22;32620;51.704;7.822;2023-02-01T03:02:55;6.00;99.90
46416;DHT22;32620;51.704;7.822;2023-02-01T03:05:44;6.00;99.90
46416;DHT22;32620;51.704;7.822;2023-02-01T03:08:14;6.00;99.90
46416;DHT22;32620;51.704;7.822;2023-02-01T03:11:14;6.00;99.90
46416;DHT22;32620;51.704;7.822;2023-02-01T03:13:47;6.00;99.90
46416;DHT22;32620;51.704;7.822;2023-02-01T03:16:36;6.00;99.90
46416;DHT22;32620;51.704;7.822;2023-02-01T03:19:11;6.00;99.90
46416;DHT22;32620;51.704;7.822;2023-02-01T03:22:03;6.00;99.90
46416;DHT22;32620;51.704;7.822;2023-02-01T03:24:34;6.00;99.90
46416;DHT22;32620;51.704;7.822;2023-02-01T03:27:27;6.00;99.90
46416;DHT22;32620;51.704;7.822;2023-02-01T03:30:02;6.00;99.90
46416;DHT22;32620;51.704;7.822;2023-02-01T03:32:28;6.00;99.90
46416;DHT22;32620;51.704;7.822;2023-02-01T03:34:54;6.00;99.90
46416;DHT22;32620;51.704;7.822;2023-02-01T03:37:25;6.00;99.90
46416;DHT22;32620;51.704;7.822;2023-02-01T03:39:58;6.00;99.90
46416;DHT22;32620;51.704;7.822;2023-02-01T03:42:45;5.90;99.90
46416;DHT22;32620;51.704;7.822;2023-02-01T03:45:19;5.90;99.90
46416;DHT22;32620;51.704;7.822;2023-02-01T03:47:48;5.90;99.90
46416;DHT22;32620;51.704;7.822;2023-02-01T03:50:20;5.90;99.90
46416;DHT22;32620;51.704;7.822;2023-02-01T03:52:56;5.90;99.90
46416;DHT22;32620;51.704;7.822;2023-02-01T03:55:24;5.90;99.90
46416;DHT22;32620;51.704;7.822;2023-02-01T03:58:06;5.90;99.90
46416;DHT22;32620;51.704;7.822;2023-02-01T04:00:32;5.90;99.90
46416;DHT22;32620;51.704;7.822;2023-02-01T04:02:57;5.90;99.90
46416;DHT22;32620;51.704;7.822;2023-02-01T04:05:23;5.90;99.90
46416;DHT22;32620;51.704;7.822;2023-02-01T04:07:49;6.00;99.90
46416;DHT22;32620;51.704;7.822;2023-02-01T04:10:15;5.90;99.90
46416;DHT22;32620;51.704;7.822;2023-02-01T04:12:41;5.90;99.90
46416;DHT22;32620;51.704;7.822;2023-02-01T04:15:07;5.90;99.90
46416;DHT22;32620;51.704;7.822;2023-02-01T04:17:33;6.00;99.90
46416;DHT22;32620;51.704;7.822;2023-02-01T04:19:58;6.00;99.90
46416;DHT22;32620;51.704;7.822;2023-02-01T04:22:24;6.00;99.90
46416;DHT22;32620;51.704;7.822;2023-02-01T04:24:49;6.10;99.90
46416;DHT22;32620;51.704;7.822;2023-02-01T04:27:15;6.10;99.90
46416;DHT22;32620;51.704;7.822;2023-02-01T04:29:41;6.00;99.90
46416;DHT22;32620;51.704;7.822;2023-02-01T04:32:06;6.10;99.90
46416;DHT22;32620;51.704;7.822;2023-02-01T04:34:32;6.00;99.90
46416;DHT22;32620;51.704;7.822;2023-02-01T04:36:58;6.00;99.90
46416;DHT22;32620;51.704;7.822;2023-02-01T04:39:23;6.00;99.90
46416;DHT22;32620;51.704;7.822;2023-02-01T04:41:49;6.00;99.90
46416;DHT22;32620;51.704;7.822;2023-02-01T04:44:16;6.00;99.90
46416;DHT22;32620;51.704;7.822;2023-02-01T04:46:43;6.00;99.90
46416;DHT22;32620;51.704;7.822;2023-02-01T04:49:10;5.90;99.90
46416;DHT22;32620;51.704;7.822;2023-02-01T04:51:35;6.00;99.90
46416;DHT22;32620;51.704;7.822;2023-02-01T04:54:01;5.90;99.90
46416;DHT22;32620;51.704;7.822;2023-02-01T04:56:26;5.90;99.90
46416;DHT22;32620;51.704;7.822;2023-02-01T04:58:52;5.90;99.90
46416;DHT22;32620;51.704;7.822;2023-02-01T05:01:18;6.00;99.90
46416;DHT22;32620;51.704;7.822;2023-02-01T05:03:43;5.90;99.90
46416;DHT22;32620;51.704;7.822;2023-02-01T05:06:09;5.90;99.90
46416;DHT22;32620;51.704;7.822;2023-02-01T05:08:35;5.90;99.90
46416;DHT22;32620;51.704;7.822;2023-02-01T05:11:00;5.90;99.90
46416;DHT22;32620;51.704;7.822;2023-02-01T05:13:28;5.80;99.90
46416;DHT22;32620;51.704;7.822;2023-02-01T05:16:15;5.90;99.90
46416;DHT22;32620;51.704;7.822;2023-02-01T05:18:41;5.90;99.90
46416;DHT22;32620;51.704;7.822;2023-02-01T05:21:06;5.80;99.90
46416;DHT22;32620;51.704;7.822;2023-02-01T05:23:32;5.90;99.90
46416;DHT22;32620;51.704;7.822;2023-02-01T05:26:01;5.90;99.90
46416;DHT22;32620;51.704;7.822;2023-02-01T05:28:27;5.90;99.90
46416;DHT22;32620;51.704;7.822;2023-02-01T05:30:53;5.90;99.90
46416;DHT22;32620;51.704;7.822;2023-02-01T05:33:19;5.90;99.90
46416;DHT22;32620;51.704;7.822;2023-02-01T05:35:45;5.90;99.90
46416;DHT22;32620;51.704;7.822;2023-02-01T05:38:10;5.90;99.90
46416;DHT22;32620;51.704;7.822;2023-02-01T05:40:36;5.90;99.90
46416;DHT22;32620;51.704;7.822;2023-02-01T05:43:02;5.90;99.90
46416;DHT22;32620;51.704;7.822;2023-02-01T05:45:27;5.90;99.90
46416;DHT22;32620;51.704;7.822;2023-02-01T05:47:53;5.90;99.90
46416;DHT22;32620;51.704;7.822;2023-02-01T05:50:18;5.80;99.90
46416;DHT22;32620;51.704;7.822;2023-02-01T05:52:44;5.80;99.90
46416;DHT22;32620;51.704;7.822;2023-02-01T05:55:09;5.80;99.90
46416;DHT22;32620;51.704;7.822;2023-02-01T05:57:35;5.70;99.90
46416;DHT22;32620;51.704;7.822;2023-02-01T06:00:01;5.70;99.90
46416;DHT22;32620;51.704;7.822;2023-02-01T06:02:27;5.70;99.90
46416;DHT22;32620;51.704;7.822;2023-02-01T06:04:52;5.80;99.90
46416;DHT22;32620;51.704;7.822;2023-02-01T06:07:18;5.70;99.90
46416;DHT22;32620;51.704;7.822;2023-02-01T06:09:44;5.70;99.90
46416;DHT22;32620;51.704;7.822;2023-02-01T06:12:09;5.70;99.90
46416;DHT22;32620;51.704;7.822;2023-02-01T06:14:35;5.70;99.90
46416;DHT22;32620;51.704;7.822;2023-02-01T06:17:02;5.70;99.90
46416;DHT22;32620;51.704;7.822;2023-02-01T06:19:28;5.80;99.90
46416;DHT22;32620;51.704;7.822;2023-02-01T06:21:53;5.80;99.90
46416;DHT22;32620;51.704;7.822;2023-02-01T06:24:19;5.80;99.90
46416;DHT22;32620;51.704;7.822;2023-02-01T06:26:45;5.90;99.90
46416;DHT22;32620;51.704;7.822;2023-02-01T06:29:10;6.00;99.90
46416;DHT22;32620;51.704;7.822;2023-02-01T06:31:36;6.00;99.90
46416;DHT22;32620;51.704;7.822;2023-02-01T06:34:01;5.90;99.90
46416;DHT22;32620;51.704;7.822;2023-02-01T06:36:28;5.90;99.90
46416;DHT22;32620;51.704;7.822;2023-02-01T06:38:53;5.80;99.90
46416;DHT22;32620;51.704;7.822;2023-02-01T06:41:22;5.80;99.90
46416;DHT22;32620;51.704;7.822;2023-02-01T06:43:47;5.80;99.90
46416;DHT22;32620;51.704;7.822;2023-02-01T06:46:13;5.80;99.90
46416;DHT22;32620;51.704;7.822;2023-02-01T06:48:39;5.80;99.90
46416;DHT22;32620;51.704;7.822;2023-02-01T06:51:05;5.80;99.90
46416;DHT22;32620;51.704;7.822;2023-02-01T06:53:31;5.80;99.90
46416;DHT22;32620;51.704;7.822;2023-02-01T06:56:00;5.80;99.90
46416;DHT22;32620;51.704;7.822;2023-02-01T06:58:30;5.80;99.90
46416;DHT22;32620;51.704;7.822;2023-02-01T07:00:56;5.80;99.90
46416;DHT22;32620;51.704;7.822;2023-02-01T07:03:22;5.80;99.90
46416;DHT22;32620;51.704;7.822;2023-02-01T07:05:47;5.90;99.90
46416;DHT22;32620;51.704;7.822;2023-02-01T07:08:13;5.90;99.90
46416;DHT22;32620;51.704;7.822;2023-02-01T07:10:39;5.90;99.90
46416;DHT22;32620;51.704;7.822;2023-02-01T07:13:04;5.90;99.90
46416;DHT22;32620;51.704;7.822;2023-02-01T07:15:30;5.90;99.90
46416;DHT22;32620;51.704;7.822;2023-02-01T07:17:56;5.80;99.90
46416;DHT22;32620;51.704;7.822;2023-02-01T07:20:22;5.90;99.90
46416;DHT22;32620;51.704;7.822;2023-02-01T07:22:48;5.90;99.90
46416;DHT22;32620;51.704;7.822;2023-02-01T07:25:13;5.90;99.90
46416;DHT22;32620;51.704;7.822;2023-02-01T07:27:39;5.80;99.90
46416;DHT22;32620;51.704;7.822;2023-02-01T07:30:05;5.80;99.90
46416;DHT22;32620;51.704;7.822;2023-02-01T07:32:31;5.80;99.90
46416;DHT22;32620;51.704;7.822;2023-02-01T07:34:57;5.80;99.90
46416;DHT22;32620;51.704;7.822;2023-02-01T07:37:23;5.90;99.90
46416;DHT22;32620;51.704;7.822;2023-02-01T07:39:51;5.80;99.90
46416;DHT22;32620;51.704;7.822;2023-02-01T07:42:17;5.80;99.90
46416;DHT22;32620;51.704;7.822;2023-02-01T07:44:42;5.90;99.90
46416;DHT22;32620;51.704;7.822;2023-02-01T07:47:08;5.90;99.90
46416;DHT22;32620;51.704;7.822;2023-02-01T07:49:33;5.90;99.90
46416;DHT22;32620;51.704;7.822;2023-02-01T07:51:59;5.90;99.90
46416;DHT22;32620;51.704;7.822;2023-02-01T07:54:25;5.90;99.90
46416;DHT22;32620;51.704;7.822;2023-02-01T07:56:51;5.90;99.90
46416;DHT22;32620;51.704;7.822;2023-02-01T07:59:16;5.90;99.90
46416;DHT22;32620;51.704;7.822;2023-02-01T08:01:42;6.00;99.90
46416;DHT22;32620;51.704;7.822;2023-02-01T08:04:10;6.00;99.90
46416;DHT22;32620;51.704;7.822;2023-02-01T08:06:37;6.00;99.90
46416;DHT22;32620;51.704;7.822;2023-02-01T08:09:03;6.00;99.90
46416;DHT22;32620;51.704;7.822;2023-02-01T08:11:29;6.00;99.90
46416;DHT22;32620;51.704;7.822;2023-02-01T08:13:55;6.10;99.90
46416;DHT22;32620;51.704;7.822;2023-02-01T08:16:21;6.10;99.90
46416;DHT22;32620;51.704;7.822;2023-02-01T08:18:48;6.10;99.90
46416;DHT22;32620;51.704;7.822;2023-02-01T08:21:17;6.10;99.90
46416;DHT22;32620;51.704;7.822;2023-02-01T08:23:43;6.10;99.90
46416;DHT22;32620;51.704;7.822;2023-02-01T08:26:15;6.10;99.90
46416;DHT22;32620;51.704;7.822;2023-02-01T08:28:44;6.10;99.90
46416;DHT22;32620;51.704;7.822;2023-02-01T08:31:12;6.10;99.90
46416;DHT22;32620;51.704;7.822;2023-02-01T08:33:40;6.10;99.90
46416;DHT22;32620;51.704;7.822;2023-02-01T08:36:08;6.10;99.90
46416;DHT22;32620;51.704;7.822;2023-02-01T08:38:36;6.10;99.90
46416;DHT22;32620;51.704;7.822;2023-02-01T08:41:07;6.10;99.90
46416;DHT22;32620;51.704;7.822;2023-02-01T08:43:33;6.10;99.90
46416;DHT22;32620;51.704;7.822;2023-02-01T08:45:59;6.20;99.90
46416;DHT22;32620;51.704;7.822;2023-02-01T08:48:25;6.20;99.90
46416;DHT22;32620;51.704;7.822;2023-02-01T08:50:50;6.30;99.90
46416;DHT22;32620;51.704;7.822;2023-02-01T08:53:16;6.30;99.90
46416;DHT22;32620;51.704;7.822;2023-02-01T08:55:41;6.30;99.90
46416;DHT22;32620;51.704;7.822;2023-02-01T08:58:07;6.40;99.90
46416;DHT22;32620;51.704;7.822;2023-02-01T09:00:32;6.40;99.90
46416;DHT22;32620;51.704;7.822;2023-02-01T09:02:58;6.40;99.90
46416;DHT22;32620;51.704;7.822;2023-02-01T09:05:24;6.30;99.90
46416;DHT22;32620;51.704;7.822;2023-02-01T09:07:52;6.30;99.90
46416;DHT22;32620;51.704;7.822;2023-02-01T09:10:18;6.20;99.90
46416;DHT22;32620;51.704;7.822;2023-02-01T09:12:43;6.30;99.90
46416;DHT22;32620;51.704;7.822;2023-02-01T09:15:09;6.30;99.90
46416;DHT22;32620;51.704;7.822;2023-02-01T09:17:35;6.30;99.90
46416;DHT22;32620;51.704;7.822;2023-02-01T09:20:01;6.30;99.90
46416;DHT22;32620;51.704;7.822;2023-02-01T09:22:26;6.30;99.90
46416;DHT22;32620;51.704;7.822;2023-02-01T09:24:53;6.40;99.90
46416;DHT22;32620;51.704;7.822;2023-02-01T09:27:19;6.40;99.90
46416;DHT22;32620;51.704;7.822;2023-02-01T09:29:44;6.40;99.90
46416;DHT22;32620;51.704;7.822;2023-02-01T09:32:10;6.40;99.90
46416;DHT22;32620;51.704;7.822;2023-02-01T09:34:36;6.40;99.90
46416;DHT22;32620;51.704;7.822;2023-02-01T09:37:01;6.40;99.90
46416;DHT22;32620;51.704;7.822;2023-02-01T09:39:27;6.40;99.90
46416;DHT22;32620;51.704;7.822;2023-02-01T09:47:46;6.40;99.90
46416;DHT22;32620;51.704;7.822;2023-02-01T09:50:18;6.60;99.90
46416;DHT22;32620;51.704;7.822;2023-02-01T09:52:57;6.70;99.90
46416;DHT22;32620;51.704;7.822;2023-02-01T09:55:45;7.00;99.90
46416;DHT22;32620;51.704;7.822;2023-02-01T09:58:18;7.10;99.90
46416;DHT22;32620;51.704;7.822;2023-02-01T10:00:54;7.20;99.90
46416;DHT22;32620;51.704;7.822;2023-02-01T10:03:20;7.10;99.90
46416;DHT22;32620;51.704;7.822;2023-02-01T10:14:46;7.40;99.90
46416;DHT22;32620;51.704;7.822;2023-02-01T10:26:16;7.00;99.90
46416;DHT22;32620;51.704;7.822;2023-02-01T10:28:44;6.90;99.90
46416;DHT22;32620;51.704;7.822;2023-02-01T10:31:11;6.80;99.90
46416;DHT22;32620;51.704;7.822;2023-02-01T10:33:42;6.90;99.90
46416;DHT22;32620;51.704;7.822;2023-02-01T10:36:31;6.90;99.90
46416;DHT22;32620;51.704;7.822;2023-02-01T10:38:59;6.90;99.90
46416;DHT22;32620;51.704;7.822;2023-02-01T10:41:31;6.80;99.90
46416;DHT22;32620;51.704;7.822;2023-02-01T10:43:59;6.80;99.90
46416;DHT22;32620;51.704;7.822;2023-02-01T10:46:25;6.80;99.90
46416;DHT22;32620;51.704;7.822;2023-02-01T10:48:54;6.80;99.90
46416;DHT22;32620;51.704;7.822;2023-02-01T10:51:26;6.80;99.90
46416;DHT22;32620;51.704;7.822;2023-02-01T10:53:57;6.80;99.90
46416;DHT22;32620;51.704;7.822;2023-02-01T10:56:26;6.80;99.90
46416;DHT22;32620;51.704;7.822;2023-02-01T10:59:01;6.80;99.90
46416;DHT22;32620;51.704;7.822;2023-02-01T11:01:33;6.80;99.90
46416;DHT22;32620;51.704;7.822;2023-02-01T11:04:01;6.80;99.90
46416;DHT22;32620;51.704;7.822;2023-02-01T11:06:37;6.70;99.90
46416;DHT22;32620;51.704;7.822;2023-02-01T11:09:14;6.80;99.90
46416;DHT22;32620;51.704;7.822;2023-02-01T11:17:21;6.70;99.90
46416;DHT22;32620;51.704;7.822;2023-02-01T11:19:59;6.70;99.90
46416;DHT22;32620;51.704;7.822;2023-02-01T11:22:26;6.60;99.90
46416;DHT22;32620;51.704;7.822;2023-02-01T11:24:54;6.70;99.90
46416;DHT22;32620;51.704;7.822;2023-02-01T11:27:21;6.70;99.90
46416;DHT22;32620;51.704;7.822;2023-02-01T11:29:51;6.70;99.90
46416;DHT22;32620;51.704;7.822;2023-02-01T11:32:20;6.70;99.90
46416;DHT22;32620;51.704;7.822;2023-02-01T11:34:53;6.70;99.90
46416;DHT22;32620;51.704;7.822;2023-02-01T11:37:24;6.70;99.90
46416;DHT22;32620;51.704;7.822;2023-02-01T11:39:56;6.80;99.90
46416;DHT22;32620;51.704;7.822;2023-02-01T11:42:23;6.90;99.90
46416;DHT22;32620;51.704;7.822;2023-02-01T11:44:48;6.90;99.90
46416;DHT22;32620;51.704;7.822;2023-02-01T11:47:27;6.80;99.90
46416;DHT22;32620;51.704;7.822;2023-02-01T11:49:56;6.80;99.90
46416;DHT22;32620;51.704;7.822;2023-02-01T11:55:37;6.70;99.90
46416;DHT22;32620;51.704;7.822;2023-02-01T12:06:54;6.80;99.90
46416;DHT22;32620;51.704;7.822;2023-02-01T12:09:37;6.80;99.90
46416;DHT22;32620;51.704;7.822;2023-02-01T12:12:30;6.80;99.90
46416;DHT22;32620;51.704;7.822;2023-02-01T12:15:22;6.70;99.90
46416;DHT22;32620;51.704;7.822;2023-02-01T12:18:16;6.60;99.90
46416;DHT22;32620;51.704;7.822;2023-02-01T12:38:49;6.10;99.90
46416;DHT22;32620;51.704;7.822;2023-02-01T12:41:50;6.10;99.90
46416;DHT22;32620;51.704;7.822;2023-02-01T12:44:54;6.00;99.90
46416;DHT22;32620;51.704;7.822;2023-02-01T12:47:44;5.90;99.90
46416;DHT22;32620;51.704;7.822;2023-02-01T12:50:22;5.90;99.90
46416;DHT22;32620;51.704;7.822;2023-02-01T12:52:52;5.90;99.90
46416;DHT22;32620;51.704;7.822;2023-02-01T12:55:35;6.00;99.90
46416;DHT22;32620;51.704;7.822;2023-02-01T12:58:13;6.00;99.90
46416;DHT22;32620;51.704;7.822;2023-02-01T13:00:43;6.10;99.90
46416;DHT22;32620;51.704;7.822;2023-02-01T13:06:02;6.10;99.90
46416;DHT22;32620;51.704;7.822;2023-02-01T13:08:42;6.10;99.90
46416;DHT22;32620;51.704;7.822;2023-02-01T13:11:21;6.10;99.90
46416;DHT22;32620;51.704;7.822;2023-02-01T13:16:59;6.00;99.90
46416;DHT22;32620;51.704;7.822;2023-02-01T13:19:33;6.00;99.90
46416;DHT22;32620;51.704;7.822;2023-02-01T13:22:06;6.00;99.90
46416;DHT22;32620;51.704;7.822;2023-02-01T13:24:50;6.00;99.90
46416;DHT22;32620;51.704;7.822;2023-02-01T13:27:17;6.00;99.90
46416;DHT22;32620;51.704;7.822;2023-02-01T13:33:00;6.10;99.90
46416;DHT22;32620;51.704;7.822;2023-02-01T13:35:52;6.10;99.90
46416;DHT22;32620;51.704;7.822;2023-02-01T13:38:47;6.10;99.90
46416;DHT22;32620;51.704;7.822;2023-02-01T13:41:27;6.10;99.90
46416;DHT22;32620;51.704;7.822;2023-02-01T13:43:58;6.20;99.90
46416;DHT22;32620;51.704;7.822;2023-02-01T13:46:25;6.30;99.90
46416;DHT22;32620;51.704;7.822;2023-02-01T13:48:54;6.30;99.90
46416;DHT22;32620;51.704;7.822;2023-02-01T13:51:40;6.40;99.90
46416;DHT22;32620;51.704;7.822;2023-02-01T13:54:06;6.50;99.90
46416;DHT22;32620;51.704;7.822;2023-02-01T13:56:41;6.60;99.90
46416;DHT22;32620;51.704;7.822;2023-02-01T14:10:52;6.90;99.90
46416;DHT22;32620;51.704;7.822;2023-02-01T14:13:40;6.90;99.90
46416;DHT22;32620;51.704;7.822;2023-02-01T14:21:27;7.00;99.90
46416;DHT22;32620;51.704;7.822;2023-02-01T14:29:30;7.10;99.90
46416;DHT22;32620;51.704;7.822;2023-02-01T14:32:05;7.10;99.90
46416;DHT22;32620;51.704;7.822;2023-02-01T14:34:39;7.00;99.90
46416;DHT22;32620;51.704;7.822;2023-02-01T14:37:11;7.00;99.90
46416;DHT22;32620;51.704;7.822;2023-02-01T14:39:59;6.90;99.90
46416;DHT22;32620;51.704;7.822;2023-02-01T14:42:43;6.90;99.90
46416;DHT22;32620;51.704;7.822;2023-02-01T14:50:44;6.90;99.90
46416;DHT22;32620;51.704;7.822;2023-02-01T14:56:07;6.70;99.90
46416;DHT22;32620;51.704;7.822;2023-02-01T15:01:27;6.80;99.90
46416;DHT22;32620;51.704;7.822;2023-02-01T15:06:53;6.80;99.90
46416;DHT22;32620;51.704;7.822;2023-02-01T15:09:26;6.60;99.90
46416;DHT22;32620;51.704;7.822;2023-02-01T15:11:55;6.50;99.90
46416;DHT22;32620;51.704;7.822;2023-02-01T15:14:21;6.50;99.90
46416;DHT22;32620;51.704;7.822;2023-02-01T15:16:47;6.50;99.90
46416;DHT22;32620;51.704;7.822;2023-02-01T15:19:20;6.60;99.90
46416;DHT22;32620;51.704;7.822;2023-02-01T15:21:49;6.60;99.90
46416;DHT22;32620;51.704;7.822;2023-02-01T15:24:30;6.70;99.90
46416;DHT22;32620;51.704;7.822;2023-02-01T15:27:03;6.80;99.90
46416;DHT22;32620;51.704;7.822;2023-02-01T15:29:29;6.80;99.90
46416;DHT22;32620;51.704;7.822;2023-02-01T15:31:57;6.80;99.90
46416;DHT22;32620;51.704;7.822;2023-02-01T15:34:23;6.80;99.90
46416;DHT22;32620;51.704;7.822;2023-02-01T15:36:49;6.90;99.90
46416;DHT22;32620;51.704;7.822;2023-02-01T15:39:19;6.90;99.90
46416;DHT22;32620;51.704;7.822;2023-02-01T15:41:51;6.90;99.90
46416;DHT22;32620;51.704;7.822;2023-02-01T15:44:30;7.00;99.90
46416;DHT22;32620;51.704;7.822;2023-02-01T15:46:56;7.00;99.90
46416;DHT22;32620;51.704;7.822;2023-02-01T15:49:28;7.10;99.90
46416;DHT22;32620;51.704;7.822;2023-02-01T15:51:55;7.10;99.90
46416;DHT22;32620;51.704;7.822;2023-02-01T15:54:26;7.00;99.90
46416;DHT22;32620;51.704;7.822;2023-02-01T15:56:54;7.00;99.90
46416;DHT22;32620;51.704;7.822;2023-02-01T15:59:32;6.90;99.90
46416;DHT22;32620;51.704;7.822;2023-02-01T16:01:59;7.00;99.90
46416;DHT22;32620;51.704;7.822;2023-02-01T16:04:27;6.90;99.90
46416;DHT22;32620;51.704;7.822;2023-02-01T16:07:00;6.90;99.90
46416;DHT22;32620;51.704;7.822;2023-02-01T16:09:38;6.90;99.90
46416;DHT22;32620;51.704;7.822;2023-02-01T16:12:31;6.90;99.90
46416;DHT22;32620;51.704;7.822;2023-02-01T16:14:59;6.90;99.90
46416;DHT22;32620;51.704;7.822;2023-02-01T16:17:24;6.80;99.90
46416;DHT22;32620;51.704;7.822;2023-02-01T16:19:50;6.70;99.90
46416;DHT22;32620;51.704;7.822;2023-02-01T16:22:15;6.60;99.90
46416;DHT22;32620;51.704;7.822;2023-02-01T16:24:41;6.60;99.90
46416;DHT22;32620;51.704;7.822;2023-02-01T16:27:06;6.60;99.90
46416;DHT22;32620;51.704;7.822;2023-02-01T16:29:32;6.50;99.90
46416;DHT22;32620;51.704;7.822;2023-02-01T16:31:58;6.60;99.90
46416;DHT22;32620;51.704;7.822;2023-02-01T16:34:24;6.60;99.90
46416;DHT22;32620;51.704;7.822;2023-02-01T16:36:50;6.50;99.90
46416;DHT22;32620;51.704;7.822;2023-02-01T16:39:18;6.40;99.90
46416;DHT22;32620;51.704;7.822;2023-02-01T16:41:44;6.30;99.90
46416;DHT22;32620;51.704;7.822;2023-02-01T16:44:10;6.30;99.90
46416;DHT22;32620;51.704;7.822;2023-02-01T16:46:40;6.20;99.90
46416;DHT22;32620;51.704;7.822;2023-02-01T16:49:08;6.20;99.90
46416;DHT22;32620;51.704;7.822;2023-02-01T16:51:40;6.10;99.90
46416;DHT22;32620;51.704;7.822;2023-02-01T16:54:07;6.10;99.90
46416;DHT22;32620;51.704;7.822;2023-02-01T16:56:35;6.10;99.90
46416;DHT22;32620;51.704;7.822;2023-02-01T16:59:01;6.20;99.90
46416;DHT22;32620;51.704;7.822;2023-02-01T17:01:27;6.20;99.90
46416;DHT22;32620;51.704;7.822;2023-02-01T17:03:52;6.20;99.90
46416;DHT22;32620;51.704;7.822;2023-02-01T17:06:21;6.20;99.90
46416;DHT22;32620;51.704;7.822;2023-02-01T17:08:53;6.10;99.90
46416;DHT22;32620;51.704;7.822;2023-02-01T17:11:20;6.10;99.90
46416;DHT22;32620;51.704;7.822;2023-02-01T17:13:46;6.10;99.90
46416;DHT22;32620;51.704;7.822;2023-02-01T17:18:58;6.10;99.90
46416;DHT22;32620;51.704;7.822;2023-02-01T17:21:27;5.90;99.90
46416;DHT22;32620;51.704;7.822;2023-02-01T17:23:53;5.90;99.90
46416;DHT22;32620;51.704;7.822;2023-02-01T17:26:19;5.80;99.90
46416;DHT22;32620;51.704;7.822;2023-02-01T17:28:44;5.80;99.90
46416;DHT22;32620;51.704;7.822;2023-02-01T17:31:13;5.70;99.90
46416;DHT22;32620;51.704;7.822;2023-02-01T17:33:40;5.70;99.90
46416;DHT22;32620;51.704;7.822;2023-02-01T17:36:08;5.70;99.90
46416;DHT22;32620;51.704;7.822;2023-02-01T17:38:35;5.70;99.90
46416;DHT22;32620;51.704;7.822;2023-02-01T17:41:01;5.70;99.90
46416;DHT22;32620;51.704;7.822;2023-02-01T17:43:26;5.60;99.90
46416;DHT22;32620;51.704;7.822;2023-02-01T17:45:55;5.60;99.90
46416;DHT22;32620;51.704;7.822;2023-02-01T17:48:23;5.60;99.90
46416;DHT22;32620;51.704;7.822;2023-02-01T17:50:50;5.60;99.90
46416;DHT22;32620;51.704;7.822;2023-02-01T17:53:19;5.70;99.90
46416;DHT22;32620;51.704;7.822;2023-02-01T17:55:48;5.70;99.90
46416;DHT22;32620;51.704;7.822;2023-02-01T17:58:15;5.70;99.90
46416;DHT22;32620;51.704;7.822;2023-02-01T18:00:41;5.70;99.90
46416;DHT22;32620;51.704;7.822;2023-02-01T18:03:19;5.70;99.90
46416;DHT22;32620;51.704;7.822;2023-02-01T18:05:46;5.70;99.90
46416;DHT22;32620;51.704;7.822;2023-02-01T18:08:16;5.70;99.90